Aviation Digital Data Service (ADDS)

Output produced by METARs form (0612 UTC 31 October 2014)
found at http://aviationweather.gov/adds/metars/
 
KAUG 310520Z 3106/0106 VRB03KT P6SM SCT050 
     FM311400 35004KT P6SM SCT100 SCT200 
     FM311700 06004KT P6SM OVC050